This is the latest recevied weather packets stored in our database for station/object IU1OLT-7. If no packets are shown the sender has not sent any weather packets the latest 1 day(s).
| Time | Temp. | Humidity | Pressure | Rain* | Wind** | Luminosity | Snow |
|---|---|---|---|---|---|---|---|
| 1777735368 | 25° C | 26% | 1024.3 hPa | - | - | - | - |
| 1777734468 | 25.56° C | 22% | 1024.4 hPa | - | - | - | - |
| 1777733562 | 26.67° C | 23% | 1024.4 hPa | - | - | - | - |
| 1777732661 | 25.56° C | 22% | 1024.5 hPa | - | - | - | - |
| 1777731761 | 25.56° C | 25% | 1024.5 hPa | - | - | - | - |
| 1777730861 | 26.67° C | 23% | 1024.7 hPa | - | - | - | - |
| 1777729961 | 27.22° C | 20% | 1024.9 hPa | - | - | - | - |
| 1777729061 | 25° C | 24% | 1025 hPa | - | - | - | - |
| 1777728157 | 26.67° C | 23% | 1025.1 hPa | - | - | - | - |
| 1777727257 | 26.67° C | 23% | 1025.1 hPa | - | - | - | - |
| 1777726354 | 26.11° C | 22% | 1025.2 hPa | - | - | - | - |
| 1777725453 | 25.56° C | 25% | 1025.3 hPa | - | - | - | - |
| 1777724553 | 25.56° C | 24% | 1025.4 hPa | - | - | - | - |
| 1777723654 | 26.67° C | 22% | 1025.4 hPa | - | - | - | - |
| 1777722753 | 27.22° C | 19% | 1025.6 hPa | - | - | - | - |
| 1777721854 | 23.89° C | 25% | 1025.8 hPa | - | - | - | - |
| 1777720953 | 25.56° C | 24% | 1025.8 hPa | - | - | - | - |
| 1777720053 | 23.89° C | 25% | 1026 hPa | - | - | - | - |
| 1777719153 | 25° C | 25% | 1026.1 hPa | - | - | - | - |
| 1777718253 | 26.11° C | 22% | 1026.2 hPa | - | - | - | - |
| 1777717354 | 23.33° C | 25% | 1026.4 hPa | - | - | - | - |
| 1777716453 | 23.89° C | 24% | 1026.5 hPa | - | - | - | - |
| 1777715553 | 22.22° C | 24% | 1026.7 hPa | - | - | - | - |
| 1777714653 | 22.78° C | 24% | 1026.7 hPa | - | - | - | - |
| 1777712853 | 21.67° C | 22% | 1026.8 hPa | - | - | - | - |
* Rain since midnight (hover to see other rain measurements)
** Current wind speed in m/s (hover to see current wind gust speed)